Time;durP1;ratioP1;P1;durP2;ratioP2;P2;SDS_P1;SDS_P2;PMS_P1;PMS_P2;Temp;Humidity;BMP_temperature;BMP_pressure;BME280_temperature;BME280_humidity;BME280_pressure;Samples;Min_cycle;Max_cycle;Signal;HPM_P1;HPM_P2
2022/01/22 00:02:10;;;;;;;152.95;44.42;;;0.20;99.90;;;;;;4939805;29;20034;-84
2022/01/22 00:04:36;;;;;;;315.70;55.70;;;0.20;99.90;;;;;;4955319;28;20027;-82
2022/01/22 00:07:04;;;;;;;258.13;52.55;;;0.20;99.90;;;;;;4955527;28;20042;-83
2022/01/22 00:09:36;;;;;;;302.98;54.75;;;0.20;99.90;;;;;;4955535;28;20475;-83
2022/01/22 00:12:08;;;;;;;418.90;62.13;;;0.20;99.90;;;;;;4957126;28;20470;-83
2022/01/22 00:14:34;;;;;;;227.02;50.78;;;0.20;99.90;;;;;;4955395;28;20742;-83
2022/01/22 00:17:01;;;;;;;223.93;51.33;;;0.20;99.90;;;;;;4971840;28;20106;-83
2022/01/22 00:19:28;;;;;;;195.88;51.50;;;0.30;99.90;;;;;;4955077;29;20035;-83
2022/01/22 00:21:54;;;;;;;237.80;54.78;;;0.20;99.90;;;;;;4954711;28;20039;-83
2022/01/22 00:24:20;;;;;;;305.55;59.22;;;0.20;99.90;;;;;;4971008;28;20091;-84
2022/01/22 00:26:47;;;;;;;162.13;47.88;;;0.20;99.90;;;;;;4955109;28;20035;-83
2022/01/22 00:29:13;;;;;;;203.95;53.53;;;0.20;99.90;;;;;;4955192;29;20038;-83
2022/01/22 00:31:41;;;;;;;219.90;52.05;;;0.20;99.90;;;;;;4954930;28;20038;-84
2022/01/22 00:34:08;;;;;;;167.93;49.40;;;0.20;99.90;;;;;;4938823;29;20043;-83
2022/01/22 00:36:35;;;;;;;183.15;51.22;;;0.30;99.90;;;;;;4954821;29;20035;-83
2022/01/22 00:39:01;;;;;;;232.18;57.13;;;0.30;99.90;;;;;;4971269;28;20059;-83
2022/01/22 00:41:26;;;;;;;207.80;52.35;;;0.30;99.90;;;;;;4957632;28;20039;-83
2022/01/22 00:43:53;;;;;;;346.77;59.63;;;0.30;99.90;;;;;;4958203;28;20093;-83
2022/01/22 00:46:20;;;;;;;229.88;53.97;;;0.30;99.90;;;;;;4974367;28;20027;-83
2022/01/22 00:48:46;;;;;;;201.63;51.00;;;0.30;99.90;;;;;;4941819;28;20030;-84
2022/01/22 00:51:11;;;;;;;198.98;51.10;;;0.30;99.90;;;;;;4941717;28;20034;-83
2022/01/22 00:53:37;;;;;;;196.25;50.40;;;0.30;99.90;;;;;;4974858;28;20031;-83
2022/01/22 00:56:05;;;;;;;170.75;50.47;;;0.30;99.90;;;;;;4941761;28;20077;-83
2022/01/22 00:58:30;;;;;;;182.40;51.83;;;0.30;99.90;;;;;;4941430;28;20034;-82
2022/01/22 01:00:56;;;;;;;176.95;51.42;;;0.40;99.90;;;;;;4941128;28;20043;-83
2022/01/22 01:03:22;;;;;;;186.98;51.30;;;0.40;99.90;;;;;;4957328;28;20031;-83
2022/01/22 01:05:48;;;;;;;166.27;50.10;;;0.40;99.90;;;;;;4941812;28;20041;-83
2022/01/22 01:08:14;;;;;;;163.93;48.05;;;0.40;99.90;;;;;;4941730;28;20027;-83
2022/01/22 01:10:40;;;;;;;192.10;53.22;;;0.40;99.90;;;;;;4941932;28;20396;-82
2022/01/22 01:13:06;;;;;;;150.07;46.92;;;0.40;99.90;;;;;;4941642;28;20058;-83
2022/01/22 01:32:31;;;;;;;130.85;43.63;;;0.50;99.90;;;;;;4880951;29;20048;-83
2022/01/22 01:34:58;;;;;;;137.63;42.97;;;0.50;99.90;;;;;;4914397;28;20060;-83
2022/01/22 01:37:23;;;;;;;115.57;40.50;;;0.60;99.90;;;;;;4941615;28;20030;-83
2022/01/22 01:39:54;;;;;;;127.90;44.60;;;0.60;99.90;;;;;;4941366;28;20035;-83
2022/01/22 01:42:30;;;;;;;129.63;42.30;;;0.60;99.90;;;;;;4957195;28;20026;-83
2022/01/22 01:45:00;;;;;;;112.43;42.58;;;0.60;99.90;;;;;;4941283;28;20033;-83
2022/01/22 01:47:35;;;;;;;137.55;43.92;;;0.60;99.90;;;;;;4942383;28;20507;-83
2022/01/22 01:50:01;;;;;;;135.38;43.15;;;0.60;99.90;;;;;;4957251;28;20031;-83
2022/01/22 01:52:43;;;;;;;122.88;42.97;;;0.60;99.90;;;;;;4941966;28;20038;-83
2022/01/22 01:55:17;;;;;;;135.43;44.63;;;0.60;99.90;;;;;;4941088;28;20062;-83
2022/01/22 01:57:43;;;;;;;131.35;42.08;;;0.60;99.90;;;;;;4941532;28;20057;-83
2022/01/22 02:00:17;;;;;;;125.03;42.05;;;0.60;99.90;;;;;;4957180;28;20375;-83
2022/01/22 02:02:45;;;;;;;129.13;43.70;;;0.60;99.90;;;;;;4957825;28;20035;-84
2022/01/22 02:05:15;;;;;;;131.65;42.40;;;0.60;99.90;;;;;;4941682;28;20034;-84
2022/01/22 02:07:43;;;;;;;133.65;44.92;;;0.70;99.90;;;;;;4941213;28;20026;-84
2022/01/22 02:10:18;;;;;;;136.05;44.47;;;0.70;99.90;;;;;;4941772;28;20027;-84
2022/01/22 02:23:57;;;;;;;138.55;44.28;;;0.70;99.90;;;;;;4976798;28;20430;-84
2022/01/22 02:26:28;;;;;;;109.93;38.22;;;0.70;99.90;;;;;;4945200;28;20027;-84
2022/01/22 02:28:53;;;;;;;138.18;44.33;;;0.70;99.90;;;;;;4960695;28;20061;-84
2022/01/22 02:31:38;;;;;;;114.65;38.97;;;0.70;99.90;;;;;;4945993;28;20030;-84
2022/01/22 02:36:44;;;;;;;130.63;44.05;;;0.70;99.90;;;;;;4960675;28;20062;-83
2022/01/22 02:39:24;;;;;;;118.53;40.08;;;0.70;99.90;;;;;;4960656;28;20121;-84
2022/01/22 02:41:51;;;;;;;110.85;41.10;;;0.70;99.90;;;;;;4944569;28;20027;-83
2022/01/22 02:44:35;;;;;;;109.45;38.53;;;0.70;99.90;;;;;;4944295;28;20082;-83
2022/01/22 02:47:07;;;;;;;124.57;39.97;;;0.70;99.90;;;;;;4945259;28;20031;-84
2022/01/22 02:49:34;;;;;;;113.57;42.58;;;0.70;99.90;;;;;;4944546;28;20023;-84
2022/01/22 02:52:03;;;;;;;115.40;41.10;;;0.70;99.90;;;;;;4960621;28;20027;-84
2022/01/22 02:54:30;;;;;;;111.25;41.03;;;0.70;99.90;;;;;;4960078;28;20022;-84
2022/01/22 02:56:56;;;;;;;107.15;38.10;;;0.70;99.90;;;;;;4960088;28;20394;-84
2022/01/22 02:59:23;;;;;;;101.13;38.88;;;0.70;99.90;;;;;;4960045;28;20030;-84
2022/01/22 03:01:51;;;;;;;109.38;38.33;;;0.70;99.90;;;;;;4944370;28;20042;-84
2022/01/22 03:04:18;;;;;;;106.65;38.38;;;0.70;99.90;;;;;;4959788;28;20101;-84
2022/01/22 03:06:44;;;;;;;103.75;37.67;;;0.70;99.90;;;;;;4944092;28;20031;-84
2022/01/22 03:09:13;;;;;;;115.82;38.03;;;0.70;99.90;;;;;;4943786;28;20363;-84
2022/01/22 03:12:18;;;;;;;100.40;35.92;;;0.70;99.90;;;;;;4959794;28;20533;-84
2022/01/22 03:17:52;;;;;;;96.30;36.22;;;0.70;99.90;;;;;;4959912;28;20117;-84
2022/01/22 03:20:22;;;;;;;99.43;36.45;;;0.70;99.90;;;;;;4955965;28;20150;-83
2022/01/22 03:28:00;;;;;;;106.43;38.47;;;0.70;99.90;;;;;;4975540;28;20101;-83
2022/01/22 03:30:26;;;;;;;101.72;37.03;;;0.70;99.90;;;;;;4943561;28;20027;-83
2022/01/22 03:32:55;;;;;;;103.32;38.85;;;0.70;99.90;;;;;;4943548;28;20034;-84
2022/01/22 03:37:52;;;;;;;95.03;36.80;;;0.70;99.90;;;;;;4959626;28;20031;-83
2022/01/22 03:40:21;;;;;;;94.38;36.65;;;0.70;99.90;;;;;;4943371;28;20031;-84
2022/01/22 03:42:47;;;;;;;99.85;35.17;;;0.80;99.90;;;;;;4959489;28;20129;-84
2022/01/22 03:45:14;;;;;;;95.50;35.63;;;0.70;99.90;;;;;;4943276;28;20038;-84
2022/01/22 03:47:41;;;;;;;114.20;37.28;;;0.70;99.90;;;;;;4943420;28;20023;-83
2022/01/22 03:50:10;;;;;;;100.85;37.25;;;0.80;99.90;;;;;;4959244;28;20022;-83
2022/01/22 03:52:35;;;;;;;103.15;38.25;;;0.80;99.90;;;;;;4942889;28;20035;-84
2022/01/22 03:55:03;;;;;;;95.60;35.72;;;0.80;99.90;;;;;;4958910;28;20027;-83
2022/01/22 03:57:49;;;;;;;99.22;37.20;;;0.80;99.90;;;;;;4975102;28;20027;-84
2022/01/22 04:00:15;;;;;;;89.05;35.58;;;0.80;99.90;;;;;;4959108;28;20122;-84
2022/01/22 04:03:30;;;;;;;84.03;33.08;;;0.80;99.90;;;;;;4958908;28;20022;-81
2022/01/22 04:06:04;;;;;;;78.63;32.40;;;0.80;99.90;;;;;;4972236;28;20050;-84
2022/01/22 04:08:29;;;;;;;82.95;32.38;;;0.80;99.90;;;;;;4958758;28;20030;-83
2022/01/22 04:11:14;;;;;;;96.60;33.83;;;0.80;99.90;;;;;;4958811;28;20034;-84
2022/01/22 04:13:39;;;;;;;79.18;31.55;;;0.80;99.90;;;;;;4942489;28;20044;-84
2022/01/22 04:16:07;;;;;;;82.22;32.67;;;0.80;99.90;;;;;;4942668;28;20391;-83
2022/01/22 04:27:14;;;;;;;73.80;30.63;;;0.80;99.90;;;;;;4881469;29;20048;-83
2022/01/22 04:29:41;;;;;;;75.45;29.90;;;0.80;99.90;;;;;;4935279;28;20117;-84
2022/01/22 04:32:07;;;;;;;75.15;30.50;;;0.80;99.90;;;;;;4957924;28;20073;-83
2022/01/22 04:34:53;;;;;;;78.72;29.92;;;0.80;99.90;;;;;;4941046;28;20521;-84
2022/01/22 04:37:20;;;;;;;63.92;26.40;;;0.80;99.90;;;;;;4957952;28;20538;-82
2022/01/22 04:39:47;;;;;;;74.45;30.40;;;0.80;99.90;;;;;;4942137;28;20045;-83
2022/01/22 04:42:15;;;;;;;73.90;28.55;;;0.80;99.90;;;;;;4942487;28;20026;-84
2022/01/22 04:45:05;;;;;;;81.32;32.95;;;0.80;99.90;;;;;;4957997;28;20086;-83
2022/01/22 04:48:27;;;;;;;74.07;27.65;;;0.80;99.90;;;;;;4958107;28;20058;-83
2022/01/22 04:55:37;;;;;;;64.07;28.08;;;0.70;99.90;;;;;;4958036;28;20482;-83
2022/01/22 04:58:03;;;;;;;64.93;26.02;;;0.70;99.90;;;;;;4957944;28;20027;-83
2022/01/22 05:00:32;;;;;;;66.75;27.77;;;0.70;99.90;;;;;;4941756;28;20030;-83
2022/01/22 05:03:23;;;;;;;68.85;27.58;;;0.80;99.90;;;;;;4932366;28;20482;-83
2022/01/22 05:06:07;;;;;;;73.05;27.13;;;0.70;99.90;;;;;;4960746;28;20057;-83
2022/01/22 05:08:47;;;;;;;63.75;27.17;;;0.80;99.90;;;;;;4943712;28;20101;-83
2022/01/22 05:11:18;;;;;;;62.83;27.17;;;0.80;99.90;;;;;;4942372;28;20026;-83
2022/01/22 05:13:45;;;;;;;61.80;28.13;;;0.70;99.90;;;;;;4941990;28;20109;-84
2022/01/22 05:16:12;;;;;;;66.18;27.27;;;0.70;99.90;;;;;;4942023;28;20754;-83
2022/01/22 05:18:48;;;;;;;71.82;27.45;;;0.70;99.90;;;;;;4941708;28;20118;-83
2022/01/22 05:21:16;;;;;;;77.07;29.70;;;0.70;99.90;;;;;;4942348;28;20034;-83
2022/01/22 05:23:44;;;;;;;64.75;27.02;;;0.70;99.90;;;;;;4941534;28;20042;-82
2022/01/22 05:26:26;;;;;;;74.72;25.15;;;0.70;99.90;;;;;;4957543;28;20430;-84
2022/01/22 05:39:21;;;;;;;53.20;23.13;;;0.70;99.90;;;;;;4957526;28;20417;-83
2022/01/22 05:41:47;;;;;;;61.20;25.75;;;0.80;99.90;;;;;;4957708;28;20031;-84
2022/01/22 05:44:13;;;;;;;62.58;26.05;;;0.80;99.90;;;;;;4941133;28;20054;-83
2022/01/22 05:46:39;;;;;;;64.32;25.55;;;0.70;99.90;;;;;;4958784;28;20034;-83
2022/01/22 05:49:06;;;;;;;64.43;26.20;;;0.80;99.90;;;;;;4945390;28;20089;-84
2022/01/22 05:51:32;;;;;;;54.20;22.70;;;0.70;99.90;;;;;;4961193;28;20450;-84
2022/01/22 06:01:58;;;;;;;62.42;24.83;;;0.70;99.90;;;;;;4977196;28;20027;-84
2022/01/22 06:04:24;;;;;;;56.53;23.77;;;0.70;99.90;;;;;;4944975;28;20061;-84
2022/01/22 06:07:00;;;;;;;56.88;26.33;;;0.70;99.90;;;;;;4946287;28;20066;-83
2022/01/22 06:09:26;;;;;;;52.63;21.98;;;0.80;99.90;;;;;;4945052;28;20023;-83
2022/01/22 06:14:28;;;;;;;61.63;25.70;;;0.80;99.90;;;;;;4960432;28;20106;-84
2022/01/22 06:16:54;;;;;;;54.85;23.27;;;0.80;99.90;;;;;;4944630;28;20122;-83
2022/01/22 06:19:28;;;;;;;64.57;24.75;;;0.80;99.90;;;;;;4945952;28;20489;-84
2022/01/22 06:21:54;;;;;;;51.30;23.27;;;0.80;99.90;;;;;;4960824;28;20034;-83
2022/01/22 06:24:22;;;;;;;51.33;23.33;;;0.80;99.90;;;;;;4944908;28;20077;-84
2022/01/22 06:26:48;;;;;;;54.67;24.33;;;0.90;99.90;;;;;;4945101;28;20041;-84
2022/01/22 06:29:14;;;;;;;51.25;22.13;;;0.90;99.90;;;;;;4944712;28;20026;-83
2022/01/22 06:31:41;;;;;;;48.50;21.85;;;0.90;99.90;;;;;;4944961;28;20085;-84
2022/01/22 06:34:07;;;;;;;47.08;22.73;;;0.90;99.90;;;;;;4960538;28;20030;-84
2022/01/22 06:36:34;;;;;;;56.05;23.42;;;0.90;99.90;;;;;;4960839;28;20089;-83
2022/01/22 06:39:15;;;;;;;50.28;22.55;;;0.90;99.90;;;;;;4961019;28;20030;-84
2022/01/22 06:41:59;;;;;;;56.65;23.40;;;0.90;99.90;;;;;;4963308;28;20198;-84
2022/01/22 06:45:02;;;;;;;51.55;20.83;;;0.90;99.90;;;;;;4945909;28;20035;-83
2022/01/22 06:47:47;;;;;;;59.20;23.58;;;0.90;99.90;;;;;;4960518;28;20034;-84
2022/01/22 06:50:22;;;;;;;51.92;23.88;;;0.90;99.90;;;;;;4960257;28;20128;-83
2022/01/22 06:52:58;;;;;;;50.28;23.52;;;0.90;99.90;;;;;;4945134;28;20429;-84
2022/01/22 06:55:42;;;;;;;56.47;23.27;;;0.90;99.90;;;;;;4945147;28;20035;-83
2022/01/22 06:58:13;;;;;;;62.75;24.00;;;0.90;99.90;;;;;;4943586;28;20166;-84
2022/01/22 07:00:43;;;;;;;56.20;21.73;;;0.90;99.90;;;;;;4945047;28;20054;-84
2022/01/22 07:03:35;;;;;;;;;;;0.90;99.90;;;;;;4973880;28;20142;-84
2022/01/22 07:06:13;;;;;;;67.43;28.48;;;0.90;99.90;;;;;;4959919;28;19921;-84
2022/01/22 07:08:39;;;;;;;64.70;26.25;;;0.90;99.90;;;;;;4943871;28;20027;-83
2022/01/22 07:11:07;;;;;;;50.50;23.85;;;0.90;99.90;;;;;;4944493;28;20062;-84
2022/01/22 07:13:37;;;;;;;64.35;27.60;;;0.90;99.90;;;;;;4944603;28;20034;-84
2022/01/22 07:16:05;;;;;;;57.45;24.65;;;0.90;99.90;;;;;;4943874;28;20125;-83
2022/01/22 07:18:34;;;;;;;60.85;24.92;;;0.90;99.90;;;;;;4944236;28;20121;-83
2022/01/22 07:21:09;;;;;;;69.85;30.40;;;0.90;99.90;;;;;;4943913;28;20493;-84
2022/01/22 07:26:05;;;;;;;56.35;26.00;;;1.00;99.90;;;;;;4977265;28;20090;-83
2022/01/22 07:28:39;;;;;;;60.15;26.48;;;1.00;99.90;;;;;;4944885;28;20049;-84
2022/01/22 07:31:08;;;;;;;53.55;23.90;;;1.00;99.90;;;;;;4943984;28;20513;-84
2022/01/22 07:33:37;;;;;;;53.45;22.80;;;1.00;99.90;;;;;;4943903;28;20034;-83
2022/01/22 07:36:04;;;;;;;60.20;24.58;;;1.00;99.90;;;;;;4943860;28;20862;-82
2022/01/22 07:38:29;;;;;;;69.88;27.02;;;1.00;99.90;;;;;;4959520;28;20035;-84
2022/01/22 07:40:57;;;;;;;54.08;25.70;;;1.00;99.90;;;;;;4959796;28;20030;-85
2022/01/22 07:43:27;;;;;;;63.93;27.13;;;1.00;99.90;;;;;;4959427;28;20041;-83
2022/01/22 07:46:03;;;;;;;57.92;24.88;;;1.00;99.90;;;;;;4961452;28;20046;-83
2022/01/22 07:48:32;;;;;;;57.42;24.80;;;1.00;99.90;;;;;;4943738;28;20492;-83
2022/01/22 07:51:21;;;;;;;51.13;22.65;;;1.00;99.90;;;;;;4952330;28;20027;-83
2022/01/22 07:53:47;;;;;;;64.70;27.50;;;1.00;99.90;;;;;;4943073;28;20035;-83
2022/01/22 07:56:18;;;;;;;63.70;25.67;;;1.00;99.90;;;;;;4959950;28;20027;-84
2022/01/22 07:58:44;;;;;;;63.90;26.15;;;1.00;99.90;;;;;;4943416;28;20332;-84
2022/01/22 08:01:10;;;;;;;64.97;30.05;;;1.00;99.90;;;;;;4943494;28;20030;-84
2022/01/22 08:04:08;;;;;;;58.20;25.88;;;1.00;99.90;;;;;;4961447;28;20482;-84
2022/01/22 08:06:53;;;;;;;54.53;24.88;;;1.00;99.90;;;;;;4961762;28;20102;-83
2022/01/22 08:09:37;;;;;;;73.03;27.35;;;1.00;99.90;;;;;;4961869;28;20041;-83
2022/01/22 08:12:21;;;;;;;55.03;26.08;;;1.00;99.90;;;;;;4961983;28;20046;-84
2022/01/22 08:14:50;;;;;;;86.70;36.72;;;1.00;99.90;;;;;;4959004;28;20082;-84
2022/01/22 08:17:15;;;;;;;86.82;34.53;;;1.10;99.90;;;;;;4959206;28;20035;-84
2022/01/22 08:19:42;;;;;;;56.67;25.02;;;1.00;99.90;;;;;;4959781;28;20504;-84
2022/01/22 08:22:27;;;;;;;55.35;25.92;;;1.10;99.90;;;;;;4961837;28;20045;-83
2022/01/22 08:25:25;;;;;;;61.67;28.25;;;1.10;99.90;;;;;;4932907;28;20382;-83
2022/01/22 08:30:27;;;;;;;73.13;27.20;;;1.10;99.90;;;;;;4959553;28;20022;-84
2022/01/22 08:38:07;;;;;;;58.40;26.23;;;1.00;99.90;;;;;;4975244;28;20027;-84
2022/01/22 08:40:33;;;;;;;64.60;27.10;;;1.00;99.90;;;;;;4942636;28;20383;-84
2022/01/22 08:42:59;;;;;;;62.22;25.65;;;0.90;99.90;;;;;;4959005;28;20042;-83
2022/01/22 08:45:24;;;;;;;61.58;25.35;;;0.90;99.90;;;;;;4958411;28;20585;-83
2022/01/22 08:47:51;;;;;;;67.25;30.00;;;0.90;99.90;;;;;;4942652;28;20304;-83
2022/01/22 08:50:19;;;;;;;66.32;29.80;;;0.90;99.90;;;;;;4958353;28;20034;-83
2022/01/22 08:52:45;;;;;;;59.53;26.42;;;1.00;99.90;;;;;;4942439;28;20030;-83
2022/01/22 08:55:11;;;;;;;108.85;48.65;;;0.90;99.90;;;;;;4941803;28;20030;-83
2022/01/22 08:57:37;;;;;;;76.80;32.80;;;1.00;99.90;;;;;;4958523;28;20023;-84
2022/01/22 09:00:17;;;;;;;71.75;31.95;;;1.00;99.90;;;;;;4943958;28;20034;-83
2022/01/22 09:02:57;;;;;;;75.43;29.70;;;1.00;99.90;;;;;;4943965;28;20031;-83
2022/01/22 09:05:43;;;;;;;66.60;30.65;;;1.00;99.90;;;;;;4960634;28;20129;-83
2022/01/22 09:08:27;;;;;;;76.25;32.80;;;1.00;99.90;;;;;;4960783;28;20520;-84
2022/01/22 09:11:06;;;;;;;73.07;32.47;;;1.00;99.90;;;;;;4959871;28;20443;-83
2022/01/22 09:13:56;;;;;;;74.70;33.28;;;1.00;99.90;;;;;;4957893;28;20122;-84
2022/01/22 09:16:25;;;;;;;69.05;30.90;;;1.00;99.90;;;;;;4958027;28;20027;-83
2022/01/22 09:18:54;;;;;;;74.50;31.65;;;1.00;99.90;;;;;;4957905;28;20031;-85
2022/01/22 09:21:20;;;;;;;74.03;31.58;;;1.00;99.90;;;;;;4957517;28;20031;-84
2022/01/22 09:23:46;;;;;;;73.90;32.75;;;1.00;99.90;;;;;;4941488;28;20037;-83
2022/01/22 09:26:17;;;;;;;83.32;31.50;;;1.00;99.90;;;;;;4958112;28;20057;-82
2022/01/22 09:28:44;;;;;;;94.82;33.55;;;1.00;99.90;;;;;;4958176;28;20035;-83
2022/01/22 09:31:10;;;;;;;86.95;38.03;;;1.10;99.90;;;;;;4958677;28;20381;-85
2022/01/22 09:33:36;;;;;;;76.97;34.47;;;1.10;99.90;;;;;;4958121;28;20038;-84
2022/01/22 09:36:21;;;;;;;74.75;27.95;;;1.10;99.90;;;;;;4961131;28;20069;-83
2022/01/22 09:38:58;;;;;;;77.90;30.60;;;1.10;99.90;;;;;;4943781;28;20037;-83
2022/01/22 09:41:28;;;;;;;72.63;28.45;;;1.10;99.90;;;;;;4958996;28;20035;-83
2022/01/22 09:44:12;;;;;;;89.30;32.65;;;1.10;99.90;;;;;;4961008;28;20129;-83
2022/01/22 09:46:53;;;;;;;74.13;33.03;;;1.10;99.90;;;;;;4958330;28;20061;-84
2022/01/22 09:49:32;;;;;;;93.35;36.38;;;1.10;99.90;;;;;;4957982;28;20030;-84
2022/01/22 09:52:09;;;;;;;74.13;31.50;;;1.10;99.90;;;;;;4976084;28;20083;-82
2022/01/22 09:54:57;;;;;;;84.13;35.08;;;1.10;99.90;;;;;;4958283;28;20118;-83
2022/01/22 09:57:33;;;;;;;99.13;35.75;;;1.10;99.90;;;;;;4943594;28;20054;-83
2022/01/22 10:00:22;;;;;;;81.22;30.85;;;1.10;99.90;;;;;;4960875;28;20046;-84
2022/01/22 10:02:54;;;;;;;98.40;33.33;;;1.10;99.90;;;;;;4958577;28;20027;-83
2022/01/22 10:05:38;;;;;;;283.45;45.70;;;1.20;99.90;;;;;;4944545;28;20034;-83
2022/01/22 10:08:35;;;;;;;156.38;39.85;;;1.10;99.90;;;;;;4974714;28;20090;-84
2022/01/22 10:11:26;;;;;;;108.72;34.15;;;1.10;99.90;;;;;;4974417;28;20046;-83
2022/01/22 10:14:10;;;;;;;110.87;33.60;;;1.10;99.90;;;;;;4959992;28;20062;-82
2022/01/22 10:16:40;;;;;;;92.70;36.63;;;1.10;99.90;;;;;;4958689;28;20155;-84
2022/01/22 10:19:19;;;;;;;154.18;35.45;;;1.10;99.90;;;;;;4975458;28;20165;-84
2022/01/22 10:22:04;;;;;;;118.85;33.03;;;1.10;99.90;;;;;;4957919;28;20039;-85
2022/01/22 10:24:49;;;;;;;165.55;44.63;;;1.10;99.90;;;;;;4974702;28;20035;-83
2022/01/22 10:29:57;;;;;;;275.05;48.25;;;1.10;99.90;;;;;;4957787;28;20445;-84
2022/01/22 10:32:36;;;;;;;130.15;40.17;;;1.10;99.90;;;;;;4943449;28;20390;-84
2022/01/22 10:35:23;;;;;;;114.63;39.90;;;1.20;99.90;;;;;;4964389;28;20177;-85
2022/01/22 10:38:08;;;;;;;119.45;38.47;;;1.20;99.90;;;;;;4978129;28;20053;-86
2022/01/22 10:40:37;;;;;;;139.23;36.03;;;1.20;99.90;;;;;;4945932;28;20031;-84
2022/01/22 10:43:34;;;;;;;409.80;57.40;;;1.20;99.90;;;;;;4961975;28;20034;-84
2022/01/22 10:48:44;;;;;;;307.15;48.78;;;1.30;99.90;;;;;;4961322;28;20035;-83
2022/01/22 10:51:12;;;;;;;711.25;77.95;;;1.30;99.90;;;;;;4961040;28;20023;-84
2022/01/22 10:53:44;;;;;;;1232.03;116.85;;;1.30;99.90;;;;;;4944975;28;20062;-85
2022/01/22 10:56:13;;;;;;;936.08;96.18;;;1.30;99.90;;;;;;4944607;28;20030;-84
2022/01/22 10:58:55;;;;;;;1294.35;116.95;;;1.30;99.90;;;;;;4960190;28;20390;-83
2022/01/22 11:01:23;;;;;;;813.72;91.53;;;1.30;99.90;;;;;;4960536;28;20121;-83
2022/01/22 11:04:05;;;;;;;1348.25;130.40;;;1.30;99.90;;;;;;4945008;28;20043;-82
2022/01/22 11:06:31;;;;;;;1332.13;134.27;;;1.30;99.90;;;;;;4944588;28;20133;-84
2022/01/22 11:08:57;;;;;;;856.33;84.90;;;1.30;99.90;;;;;;4944808;28;20137;-83
2022/01/22 11:11:23;;;;;;;767.25;86.32;;;1.30;99.90;;;;;;4944632;28;20062;-83
2022/01/22 11:13:49;;;;;;;1043.88;111.63;;;1.40;99.90;;;;;;4960461;28;20402;-83
2022/01/22 11:16:17;;;;;;;1083.70;107.43;;;1.40;99.90;;;;;;4960384;28;20043;-83
2022/01/22 11:18:46;;;;;;;843.22;94.25;;;1.40;99.90;;;;;;4945148;28;20491;-85
2022/01/22 11:21:13;;;;;;;721.80;84.90;;;1.40;99.90;;;;;;4978232;28;20378;-84
2022/01/22 11:23:39;;;;;;;1315.07;124.78;;;1.40;99.90;;;;;;4960570;28;20034;-84
2022/01/22 11:26:05;;;;;;;1085.80;116.53;;;1.40;99.90;;;;;;4944524;28;20372;-84
2022/01/22 11:28:31;;;;;;;1200.82;121.45;;;1.50;99.90;;;;;;4960610;28;20037;-84
2022/01/22 11:30:58;;;;;;;1227.93;123.20;;;1.50;99.90;;;;;;4960243;28;20027;-85
2022/01/22 11:33:25;;;;;;;869.17;95.53;;;1.50;99.90;;;;;;4959952;28;20061;-84
2022/01/22 11:36:03;;;;;;;1723.70;182.00;;;1.60;99.90;;;;;;4959593;28;20045;-84
2022/01/22 11:38:35;;;;;;;1267.38;132.93;;;1.50;99.90;;;;;;4960340;28;20030;-84
2022/01/22 11:41:14;;;;;;;1325.10;151.32;;;1.60;99.90;;;;;;4944109;28;20089;-84
2022/01/22 11:44:00;;;;;;;1112.47;128.07;;;1.60;99.90;;;;;;4943090;28;20049;-85
2022/01/22 11:46:31;;;;;;;662.90;84.55;;;1.60;99.90;;;;;;4943712;28;20490;-84
2022/01/22 11:49:25;;;;;;;860.92;114.65;;;1.60;99.90;;;;;;4943765;28;20082;-84
2022/01/22 11:51:53;;;;;;;686.53;85.82;;;1.60;99.90;;;;;;4943996;28;20039;-85
2022/01/22 11:54:22;;;;;;;721.95;94.68;;;1.70;99.90;;;;;;4959296;28;20522;-84
2022/01/22 11:56:54;;;;;;;411.05;61.33;;;1.70;99.90;;;;;;4959882;28;20481;-84
2022/01/22 11:59:24;;;;;;;452.13;67.45;;;1.80;99.90;;;;;;4943441;28;20513;-84
2022/01/22 12:01:56;;;;;;;527.77;75.20;;;1.70;99.90;;;;;;4959006;28;20039;-84
2022/01/22 12:04:45;;;;;;;449.05;62.03;;;1.80;99.90;;;;;;4943292;28;20066;-84
2022/01/22 12:07:19;;;;;;;430.58;63.85;;;1.80;99.90;;;;;;4943419;28;20035;-85
2022/01/22 12:09:53;;;;;;;390.13;60.05;;;1.80;99.90;;;;;;4977121;28;20023;-84
2022/01/22 12:15:45;;;;;;;258.08;51.80;;;1.80;99.90;;;;;;4976229;28;20063;-84
2022/01/22 12:18:16;;;;;;;545.95;69.15;;;1.80;99.90;;;;;;4950538;28;20478;-84
2022/01/22 12:23:41;;;;;;;170.25;44.45;;;1.90;99.90;;;;;;4976272;28;20035;-83
2022/01/22 12:26:07;;;;;;;353.77;59.38;;;1.90;99.90;;;;;;4958879;28;20669;-84
2022/01/22 12:28:45;;;;;;;122.00;37.65;;;1.90;99.90;;;;;;4942822;28;20031;-84
2022/01/22 12:31:11;;;;;;;204.70;50.78;;;1.90;99.90;;;;;;4942727;28;20027;-83
2022/01/22 12:33:56;;;;;;;275.83;52.13;;;1.90;99.90;;;;;;4942517;28;20054;-83
2022/01/22 12:36:34;;;;;;;135.00;41.90;;;1.90;99.90;;;;;;4958163;28;20030;-84
2022/01/22 12:39:09;;;;;;;138.15;43.97;;;2.00;99.90;;;;;;4976190;28;20038;-84
2022/01/22 12:44:46;;;;;;;155.57;47.83;;;2.00;99.90;;;;;;4958125;28;20402;-83
2022/01/22 12:47:13;;;;;;;143.90;49.10;;;2.00;99.90;;;;;;4959393;28;20085;-84
2022/01/22 12:49:43;;;;;;;130.27;44.85;;;2.00;99.90;;;;;;4942659;28;20041;-85
2022/01/22 12:52:10;;;;;;;109.55;40.80;;;2.00;99.90;;;;;;4976033;28;20490;-85
2022/01/22 12:54:42;;;;;;;114.13;39.78;;;2.00;99.90;;;;;;4958313;28;20035;-84
2022/01/22 12:57:09;;;;;;;103.90;38.65;;;2.00;99.90;;;;;;4941600;28;20047;-81
2022/01/22 12:59:52;;;;;;;107.80;40.33;;;2.10;99.90;;;;;;4958495;28;20114;-84
2022/01/22 13:02:19;;;;;;;112.80;41.00;;;2.10;99.90;;;;;;4975903;28;20027;-84
2022/01/22 13:04:59;;;;;;;93.93;36.17;;;2.10;99.90;;;;;;4958305;28;20372;-83
2022/01/22 13:07:47;;;;;;;116.38;40.45;;;2.10;99.90;;;;;;4944027;28;20119;-84
2022/01/22 13:10:34;;;;;;;105.40;37.75;;;2.10;99.90;;;;;;4960586;28;20041;-84
2022/01/22 13:13:01;;;;;;;112.15;42.03;;;2.10;99.90;;;;;;4942367;28;20050;-85
2022/01/22 13:15:27;;;;;;;107.60;39.15;;;2.10;99.90;;;;;;4941969;28;20053;-84
2022/01/22 13:18:02;;;;;;;115.43;40.33;;;2.10;99.90;;;;;;4958143;28;20394;-84
2022/01/22 13:20:35;;;;;;;97.45;37.35;;;2.10;99.90;;;;;;4958194;28;20043;-84
2022/01/22 13:23:18;;;;;;;96.72;37.92;;;2.10;99.90;;;;;;4942471;28;20508;-84
2022/01/22 13:25:44;;;;;;;102.40;37.25;;;2.20;99.90;;;;;;4958620;28;20113;-84
2022/01/22 13:28:12;;;;;;;101.70;39.25;;;2.10;99.90;;;;;;4942693;28;20102;-84
2022/01/22 13:30:49;;;;;;;92.15;36.05;;;2.10;99.90;;;;;;4941934;28;20039;-84
2022/01/22 13:34:01;;;;;;;87.05;34.92;;;2.10;99.90;;;;;;4957932;28;20031;-86
2022/01/22 13:40:06;;;;;;;95.47;36.92;;;2.20;99.90;;;;;;4975299;28;20058;-84
2022/01/22 13:49:51;;;;;;;91.28;38.78;;;2.20;99.90;;;;;;4973873;28;20045;-84
2022/01/22 13:52:19;;;;;;;92.40;36.67;;;2.20;99.90;;;;;;4942317;28;20540;-84
2022/01/22 13:54:53;;;;;;;94.50;41.65;;;2.20;99.90;;;;;;4941458;28;20517;-82
2022/01/22 13:57:20;;;;;;;78.15;33.10;;;2.20;99.90;;;;;;4958199;28;20054;-85
2022/01/22 13:59:48;;;;;;;84.75;32.90;;;2.20;99.90;;;;;;4942400;28;20030;-85
2022/01/22 14:05:03;;;;;;;78.40;32.08;;;2.20;99.90;;;;;;4957638;28;20069;-84
2022/01/22 14:07:32;;;;;;;82.85;34.55;;;2.20;99.90;;;;;;4943118;28;20039;-84
2022/01/22 14:10:07;;;;;;;72.60;31.88;;;2.20;99.90;;;;;;4945900;28;20441;-84
2022/01/22 14:12:54;;;;;;;66.70;30.20;;;2.20;99.90;;;;;;4961810;28;20071;-83
2022/01/22 14:15:26;;;;;;;65.70;28.55;;;2.20;99.90;;;;;;4961608;28;20177;-84
2022/01/22 14:20:46;;;;;;;74.72;32.58;;;2.30;99.90;;;;;;4961790;28;20081;-82
2022/01/22 14:23:24;;;;;;;72.20;29.77;;;2.20;99.90;;;;;;4945264;28;20035;-82
2022/01/22 14:26:23;;;;;;;69.65;29.38;;;2.30;99.90;;;;;;4945030;28;20035;-82
2022/01/22 14:28:56;;;;;;;56.38;26.83;;;2.30;99.90;;;;;;4945801;28;20066;-82
2022/01/22 14:31:39;;;;;;;79.15;34.38;;;2.30;99.90;;;;;;4945366;28;20035;-82
2022/01/22 14:34:07;;;;;;;59.65;24.92;;;2.30;99.90;;;;;;4945629;28;20037;-83
2022/01/22 14:36:53;;;;;;;73.45;28.50;;;2.30;99.90;;;;;;4960667;28;20041;-84
2022/01/22 14:44:51;;;;;;;67.57;29.05;;;2.30;99.90;;;;;;4975998;28;20041;-83
2022/01/22 14:47:21;;;;;;;76.15;31.48;;;2.30;99.90;;;;;;4960205;28;20050;-83
2022/01/22 14:49:48;;;;;;;70.00;31.52;;;2.30;99.90;;;;;;4959812;28;20050;-83
2022/01/22 14:52:16;;;;;;;66.80;28.63;;;2.30;99.90;;;;;;4977341;28;20045;-83
2022/01/22 14:54:44;;;;;;;52.40;23.77;;;2.30;99.90;;;;;;4960368;28;20057;-83
2022/01/22 14:57:13;;;;;;;60.00;28.70;;;2.30;99.90;;;;;;4960556;28;20034;-82
2022/01/22 14:59:40;;;;;;;56.88;27.45;;;2.30;99.90;;;;;;4944175;28;20482;-83
2022/01/22 15:02:07;;;;;;;57.63;25.85;;;2.30;99.90;;;;;;4959920;28;20517;-83